createdAt,value
2022-11-12T00:01:09.596Z,101629.53
2022-11-12T00:06:12.555Z,101633.13
2022-11-12T00:11:16.521Z,101613.94
2022-11-12T00:16:20.036Z,101618.97
2022-11-12T00:21:22.899Z,101621.63
2022-11-12T00:26:25.964Z,101614.47
2022-11-12T00:31:29.100Z,101598.53
2022-11-12T00:36:32.027Z,101601.91
2022-11-12T00:41:34.984Z,101596.63
2022-11-12T00:46:37.702Z,101599.00
2022-11-12T00:51:41.020Z,101591.72
2022-11-12T00:56:47.429Z,101594.38
2022-11-12T01:01:51.277Z,101590.66
2022-11-12T01:06:54.302Z,101596.16
2022-11-12T01:11:57.367Z,101584.00
2022-11-12T01:17:00.234Z,101581.03
2022-11-12T01:22:03.216Z,101571.59
2022-11-12T01:27:06.210Z,101576.16
2022-11-12T01:32:09.152Z,101571.72
2022-11-12T01:37:12.076Z,101574.25
2022-11-12T01:42:14.898Z,101572.38
2022-11-12T01:47:29.908Z,101569.63
2022-11-12T01:52:43.235Z,101564.34
2022-11-12T01:58:05.570Z,101564.34
2022-11-12T02:03:16.010Z,101569.72
2022-11-12T02:08:19.418Z,101555.78
2022-11-12T02:13:41.149Z,101556.63
2022-11-12T02:18:44.080Z,101549.78
2022-11-12T02:23:46.907Z,101551.03
2022-11-12T02:28:49.768Z,101557.56
2022-11-12T02:33:52.696Z,101569.78
2022-11-12T02:38:55.769Z,101562.78
2022-11-12T02:43:58.661Z,101566.97
2022-11-12T02:49:01.452Z,101576.22
2022-11-12T02:54:04.384Z,101569.44
2022-11-12T02:59:07.202Z,101568.06
2022-11-12T03:04:10.156Z,101564.59
2022-11-12T03:09:13.424Z,101563.00
2022-11-12T03:14:16.515Z,101566.47
2022-11-12T03:19:19.466Z,101568.28
2022-11-12T03:24:22.309Z,101567.50
2022-11-12T03:29:26.350Z,101578.03
2022-11-12T03:34:29.223Z,101580.06
2022-11-12T03:39:32.116Z,101583.09
2022-11-12T03:44:35.123Z,101589.75
2022-11-12T03:49:40.830Z,101594.34
2022-11-12T03:54:43.737Z,101594.22
2022-11-12T03:59:47.031Z,101577.72
2022-11-12T04:05:08.198Z,101593.69
2022-11-12T04:10:11.363Z,101603.25
2022-11-12T04:15:14.332Z,101590.09
2022-11-12T04:20:37.207Z,101582.00
2022-11-12T04:25:59.408Z,101572.03
2022-11-12T04:31:02.676Z,101580.38
2022-11-12T04:36:05.667Z,101573.81
2022-11-12T04:41:27.507Z,101578.22
2022-11-12T04:46:30.475Z,101576.88
2022-11-12T04:51:51.723Z,101591.16
2022-11-12T04:56:54.613Z,101586.16
2022-11-12T05:01:57.434Z,101591.50
2022-11-12T05:07:01.999Z,101595.22
2022-11-12T05:12:05.182Z,101604.41
2022-11-12T05:17:08.181Z,101613.59
2022-11-12T05:22:33.299Z,101599.25
2022-11-12T05:27:35.690Z,101595.94
2022-11-12T05:32:38.595Z,101601.22
2022-11-12T05:37:41.438Z,101587.22
2022-11-12T05:42:45.464Z,101589.50
2022-11-12T05:47:48.544Z,101604.66
2022-11-12T05:52:51.343Z,101617.56
2022-11-12T05:57:54.294Z,101622.47
2022-11-12T06:02:58.943Z,101625.78
2022-11-12T06:08:02.608Z,101627.19
2022-11-12T06:13:06.050Z,101631.31
2022-11-12T06:18:09.983Z,101647.88
2022-11-12T06:23:12.840Z,101652.34
2022-11-12T06:28:15.740Z,101661.66
2022-11-12T06:33:18.764Z,101667.78
2022-11-12T06:38:21.944Z,101682.63
2022-11-12T06:43:26.174Z,101678.97
2022-11-12T06:48:30.709Z,101674.03
2022-11-12T06:53:33.664Z,101681.19
2022-11-12T06:58:36.782Z,101673.34
2022-11-12T07:03:41.905Z,101688.78
2022-11-12T07:08:49.778Z,101707.34
2022-11-12T07:13:52.692Z,101704.06
2022-11-12T07:18:55.572Z,101698.81
2022-11-12T07:23:58.507Z,101700.88
2022-11-12T07:29:01.466Z,101706.09
2022-11-12T07:34:04.463Z,101688.31
2022-11-12T07:39:07.436Z,101682.47
2022-11-12T07:44:10.671Z,101682.34
2022-11-12T07:49:13.668Z,101685.63
2022-11-12T07:54:16.599Z,101690.88
2022-11-12T07:59:19.533Z,101692.66
2022-11-12T08:04:23.149Z,101694.78
2022-11-12T08:09:26.044Z,101695.38
2022-11-12T08:14:29.370Z,101705.34
2022-11-12T08:19:32.304Z,101699.34
2022-11-12T08:24:35.152Z,101699.44
2022-11-12T08:29:38.023Z,101701.59
2022-11-12T08:34:41.535Z,101705.75
2022-11-12T08:39:44.461Z,101707.59
2022-11-12T08:44:47.464Z,101706.78
2022-11-12T08:49:50.470Z,101708.28
2022-11-12T08:54:53.382Z,101690.19
2022-11-12T08:59:56.255Z,101700.84
2022-11-12T09:04:59.133Z,101709.94
2022-11-12T09:10:02.278Z,101712.31
2022-11-12T09:15:36.323Z,101718.19
2022-11-12T09:20:31.372Z,101724.03
2022-11-12T09:25:35.359Z,101721.03
2022-11-12T09:30:43.791Z,101721.19
2022-11-12T09:35:48.035Z,101735.03
2022-11-12T09:40:59.885Z,101732.72
2022-11-12T09:46:27.313Z,101731.94
2022-11-12T09:51:46.698Z,101732.13
2022-11-12T09:56:50.983Z,101737.88
2022-11-12T10:02:05.566Z,101745.56
2022-11-12T10:07:43.740Z,101745.66
2022-11-12T10:13:17.401Z,101744.88
2022-11-12T10:18:36.136Z,101739.84
2022-11-12T10:23:54.176Z,101732.28
2022-11-12T10:29:19.185Z,101732.28
2022-11-12T10:34:24.484Z,101735.47
2022-11-12T10:39:44.246Z,101725.84
2022-11-12T10:44:48.705Z,101720.28
2022-11-12T10:50:16.582Z,101717.44
2022-11-12T10:55:56.521Z,101726.38
2022-11-12T11:01:16.458Z,101722.34
2022-11-12T11:06:26.562Z,101712.38
2022-11-12T11:11:31.397Z,101709.31
2022-11-12T11:16:52.549Z,101711.00
2022-11-12T11:22:14.916Z,101711.72
2022-11-12T11:27:42.454Z,101710.19
2022-11-12T11:32:54.154Z,101705.53
2022-11-12T11:38:35.901Z,101701.13
2022-11-12T11:44:13.794Z,101702.78
2022-11-12T11:49:44.667Z,101688.28
2022-11-12T11:55:12.329Z,101678.34
2022-11-12T12:00:23.056Z,101674.06
2022-11-12T12:05:33.502Z,101673.47
2022-11-12T12:11:08.193Z,101668.75
2022-11-12T12:16:39.079Z,101668.34
2022-11-12T12:21:46.890Z,101664.16
2022-11-12T12:27:04.591Z,101648.53
2022-11-12T12:32:28.867Z,101643.34
2022-11-12T12:37:42.600Z,101642.06
2022-11-12T12:43:00.227Z,101640.84
2022-11-12T12:48:11.471Z,101643.97
2022-11-12T12:53:22.676Z,101642.84
2022-11-12T12:58:47.419Z,101644.03
2022-11-12T13:03:52.942Z,101639.44
2022-11-12T13:09:25.763Z,101641.56
2022-11-12T13:15:19.287Z,101637.91
2022-11-12T13:20:34.485Z,101639.59
2022-11-12T13:25:38.707Z,101631.97
2022-11-12T13:30:41.469Z,101628.16
2022-11-12T13:35:44.677Z,101626.09
2022-11-12T13:41:10.904Z,101637.91
2022-11-12T13:46:39.993Z,101629.22
2022-11-12T13:51:53.253Z,101631.88
2022-11-12T13:56:56.932Z,101629.22
2022-11-12T14:02:15.159Z,101630.19
2022-11-12T14:07:27.311Z,101629.50
2022-11-12T14:12:53.609Z,101630.66
2022-11-12T14:18:12.644Z,101627.03
2022-11-12T14:23:24.504Z,101633.38
2022-11-12T14:28:33.088Z,101633.59
2022-11-12T14:33:35.984Z,101623.63
2022-11-12T14:38:48.284Z,101632.50
2022-11-12T14:44:11.469Z,101629.84
2022-11-12T14:49:47.934Z,101628.91
2022-11-12T14:55:00.484Z,101629.91
2022-11-12T15:00:44.577Z,101634.81
2022-11-12T15:06:04.117Z,101635.81
2022-11-12T15:11:35.433Z,101635.09
2022-11-12T15:16:43.700Z,101634.25
2022-11-12T15:22:02.368Z,101630.72
2022-11-12T15:27:35.888Z,101640.66
2022-11-12T15:32:38.735Z,101645.81
2022-11-12T15:37:43.295Z,101648.72
2022-11-12T15:42:48.203Z,101653.38
2022-11-12T15:47:50.828Z,101655.66
2022-11-12T15:52:54.754Z,101660.50
2022-11-12T15:57:58.214Z,101667.81
2022-11-12T16:03:20.458Z,101670.28
2022-11-12T16:08:23.500Z,101668.13
2022-11-12T16:13:36.123Z,101671.44
2022-11-12T16:18:39.069Z,101670.13
2022-11-12T16:23:41.996Z,101671.34
2022-11-12T16:28:45.035Z,101669.34
2022-11-12T16:33:48.519Z,101669.84
2022-11-12T16:38:51.454Z,101672.41
2022-11-12T16:43:54.658Z,101678.63
2022-11-12T16:48:57.635Z,101677.53
2022-11-12T16:54:00.497Z,101672.03
2022-11-12T16:59:04.559Z,101679.19
2022-11-12T17:04:07.831Z,101670.63
2022-11-12T17:09:12.398Z,101673.91
2022-11-12T17:14:16.490Z,101670.78
2022-11-12T17:19:19.446Z,101676.09
2022-11-12T17:24:22.318Z,101679.31
2022-11-12T17:29:25.218Z,101681.53
2022-11-12T17:34:28.151Z,101669.44
2022-11-12T17:39:31.088Z,101674.13
2022-11-12T17:44:34.014Z,101683.81
2022-11-12T17:49:37.859Z,101689.78
2022-11-12T17:54:40.807Z,101673.84
2022-11-12T17:59:43.744Z,101680.53
2022-11-12T18:04:46.665Z,101676.66
2022-11-12T18:09:49.582Z,101689.09
2022-11-12T18:14:54.136Z,101681.94
2022-11-12T18:19:57.101Z,101686.91
2022-11-12T18:25:01.414Z,101693.59
2022-11-12T18:30:05.239Z,101686.09
2022-11-12T18:35:08.897Z,101692.56
2022-11-12T18:40:12.087Z,101699.97
2022-11-12T18:45:15.083Z,101705.47
2022-11-12T18:50:18.160Z,101712.88
2022-11-12T18:55:21.082Z,101703.47
2022-11-12T19:00:23.898Z,101717.13
2022-11-12T19:05:26.822Z,101705.91
2022-11-12T19:10:30.097Z,101712.25
2022-11-12T19:15:34.253Z,101717.44
2022-11-12T19:20:37.168Z,101708.44
2022-11-12T19:25:40.020Z,101714.06
2022-11-12T19:30:42.962Z,101716.03
2022-11-12T19:35:45.765Z,101722.38
2022-11-12T19:40:48.636Z,101729.63
2022-11-12T19:45:51.487Z,101727.63
2022-11-12T19:50:54.420Z,101735.44
2022-11-12T19:56:04.242Z,101739.78
2022-11-12T20:01:10.826Z,101753.13
2022-11-12T20:06:20.625Z,101756.72
2022-11-12T20:11:23.594Z,101759.59
2022-11-12T20:16:28.145Z,101755.34
2022-11-12T20:21:31.084Z,101745.22
2022-11-12T20:26:33.941Z,101761.50
2022-11-12T20:31:37.950Z,101753.25
2022-11-12T20:36:40.710Z,101756.53
2022-11-12T20:41:43.648Z,101745.97
2022-11-12T20:46:46.525Z,101757.16
2022-11-12T20:51:49.385Z,101747.31
2022-11-12T20:56:52.307Z,101750.47
2022-11-12T21:01:58.837Z,101756.56
2022-11-12T21:07:05.262Z,101752.75
2022-11-12T21:12:08.658Z,101750.31
2022-11-12T21:17:11.585Z,101745.13
2022-11-12T21:22:15.539Z,101747.88
2022-11-12T21:27:18.514Z,101751.25
2022-11-12T21:32:21.170Z,101754.84
2022-11-12T21:37:23.965Z,101740.16
2022-11-12T21:42:26.643Z,101746.59
2022-11-12T21:47:29.460Z,101749.63
2022-11-12T21:52:32.359Z,101744.00
2022-11-12T21:57:35.332Z,101745.31
2022-11-12T22:02:38.363Z,101747.63
2022-11-12T22:07:41.355Z,101741.06
2022-11-12T22:12:58.863Z,101733.72
2022-11-12T22:18:07.766Z,101736.97
2022-11-12T22:23:10.660Z,101737.41
2022-11-12T22:28:13.522Z,101743.09
2022-11-12T22:33:16.460Z,101728.88
2022-11-12T22:38:19.489Z,101738.91
2022-11-12T22:43:22.296Z,101736.81
2022-11-12T22:48:25.374Z,101740.69
2022-11-12T22:53:29.760Z,101742.63
2022-11-12T22:58:45.196Z,101751.13
2022-11-12T23:03:50.140Z,101747.06
2022-11-12T23:08:56.033Z,101742.28
2022-11-12T23:13:58.914Z,101743.66
2022-11-12T23:19:01.993Z,101751.00
2022-11-12T23:24:05.182Z,101746.94
2022-11-12T23:29:12.938Z,101762.25
2022-11-12T23:34:16.214Z,101754.81
2022-11-12T23:39:19.038Z,101752.66
2022-11-12T23:44:21.860Z,101767.09
2022-11-12T23:49:24.732Z,101767.47
2022-11-12T23:54:27.635Z,101761.63
2022-11-12T23:59:30.503Z,101761.88
